Time;durP1;ratioP1;P1;durP2;ratioP2;P2;SDS_P1;SDS_P2;PMS_P1;PMS_P2;Temp;Humidity;BMP_temperature;BMP_pressure;BME280_temperature;BME280_humidity;BME280_pressure;Samples;Min_cycle;Max_cycle;Signal;HPM_P1;HPM_P2
2024/01/13 00:00:40;;;;;;;;;;;;;;;17.37;58.77;99425.19;2082322;28;20011;-66
2024/01/13 00:01:40;;;;;;;;;;;;;;;17.37;58.98;99425.19;2088829;28;19924;-66
2024/01/13 00:02:42;;;;;;;;;;;;;;;17.33;58.91;99416.66;2084357;28;20455;-66
2024/01/13 00:03:42;;;;;;;;;;;;;;;17.33;58.82;99415.84;2084348;28;20731;-66
2024/01/13 00:04:43;;;;;;;;;;;;;;;17.34;58.74;99422.84;2088849;28;19963;-66
2024/01/13 00:05:45;;;;;;;;;;;;;;;17.30;58.85;99421.53;2088189;28;19957;-66
2024/01/13 00:06:45;;;;;;;;;;;;;;;17.29;58.99;99418.00;2088028;28;19933;-66
2024/01/13 00:07:47;;;;;;;;;;;;;;;17.31;58.87;99424.03;2088238;28;20012;-66
2024/01/13 00:08:49;;;;;;;;;;;;;;;17.32;58.88;99422.19;2087071;28;19940;-66
2024/01/13 00:09:49;;;;;;;;;;;;;;;17.29;58.84;99426.06;2085194;28;20513;-66
2024/01/13 00:10:51;;;;;;;;;;;;;;;17.26;58.81;99421.03;2089228;28;19932;-66
2024/01/13 00:11:51;;;;;;;;;;;;;;;17.24;58.96;99427.59;2085546;28;19940;-66
2024/01/13 00:12:53;;;;;;;;;;;;;;;17.23;58.95;99431.28;2088588;28;20016;-66
2024/01/13 00:13:53;;;;;;;;;;;;;;;17.22;58.95;99421.56;2088867;28;19929;-66
2024/01/13 00:14:55;;;;;;;;;;;;;;;17.20;59.13;99427.13;2087341;28;19956;-66
2024/01/13 00:15:56;;;;;;;;;;;;;;;17.18;58.95;99421.91;2085178;28;19933;-66
2024/01/13 00:16:57;;;;;;;;;;;;;;;17.19;59.01;99420.09;2088225;28;19963;-66
2024/01/13 00:17:58;;;;;;;;;;;;;;;17.18;59.19;99424.59;2084042;28;20411;-66
2024/01/13 00:18:59;;;;;;;;;;;;;;;17.17;59.00;99424.78;2084753;28;20024;-65
2024/01/13 00:20:00;;;;;;;;;;;;;;;17.17;58.98;99422.94;2085865;28;19940;-66
2024/01/13 00:21:02;;;;;;;;;;;;;;;17.13;58.98;99426.13;2082451;28;20027;-66
2024/01/13 00:22:02;;;;;;;;;;;;;;;17.11;59.21;99420.97;2082834;28;19924;-66
2024/01/13 00:23:04;;;;;;;;;;;;;;;17.11;59.23;99428.16;2084401;28;19925;-66
2024/01/13 00:24:06;;;;;;;;;;;;;;;17.13;58.99;99427.00;2087376;28;19928;-66
2024/01/13 00:25:08;;;;;;;;;;;;;;;17.12;59.00;99419.94;2087106;28;20499;-66
2024/01/13 00:26:09;;;;;;;;;;;;;;;17.11;58.98;99422.81;2085694;28;19939;-65
2024/01/13 00:27:10;;;;;;;;;;;;;;;17.09;59.23;99412.25;2087715;28;19968;-66
2024/01/13 00:28:11;;;;;;;;;;;;;;;17.07;59.18;99421.47;2088404;28;20307;-66
2024/01/13 00:29:12;;;;;;;;;;;;;;;17.07;59.02;99424.16;2088899;28;20032;-66
2024/01/13 00:30:14;;;;;;;;;;;;;;;17.06;59.16;99417.97;2083894;28;19940;-66
2024/01/13 00:31:15;;;;;;;;;;;;;;;17.06;59.23;99417.97;2086749;28;20045;-66
2024/01/13 00:32:16;;;;;;;;;;;;;;;17.04;59.08;99414.63;2090411;28;19932;-66
2024/01/13 00:33:16;;;;;;;;;;;;;;;17.02;59.22;99422.00;2085339;28;20015;-66
2024/01/13 00:34:18;;;;;;;;;;;;;;;17.02;59.08;99422.00;2088024;28;20012;-66
2024/01/13 00:35:19;;;;;;;;;;;;;;;17.02;59.00;99427.38;2088585;28;19924;-66
2024/01/13 00:36:20;;;;;;;;;;;;;;;17.02;59.15;99419.34;2088177;28;20043;-66
2024/01/13 00:37:21;;;;;;;;;;;;;;;17.02;59.19;99419.34;2084403;28;19967;-66
2024/01/13 00:38:22;;;;;;;;;;;;;;;17.02;59.05;99421.16;2083301;28;20166;-65
2024/01/13 00:39:25;;;;;;;;;;;;;;;16.99;59.22;99425.00;2085741;28;19925;-66
2024/01/13 00:40:25;;;;;;;;;;;;;;;16.98;59.04;99424.19;2086506;28;19935;-66
2024/01/13 00:41:26;;;;;;;;;;;;;;;16.95;59.05;99418.34;2086455;28;19928;-66
2024/01/13 00:42:27;;;;;;;;;;;;;;;16.95;59.22;99424.53;2088961;28;19983;-66
2024/01/13 00:43:28;;;;;;;;;;;;;;;16.94;59.35;99422.03;2086391;28;19929;-66
2024/01/13 00:44:30;;;;;;;;;;;;;;;16.94;59.08;99419.38;2086249;28;19975;-66
2024/01/13 00:45:30;;;;;;;;;;;;;;;16.92;59.34;99416.00;2089386;28;19936;-66
2024/01/13 00:46:32;;;;;;;;;;;;;;;16.92;59.25;99419.53;2087932;28;19979;-66
2024/01/13 00:47:33;;;;;;;;;;;;;;;16.92;59.21;99416.84;2086519;28;19970;-65
2024/01/13 00:48:35;;;;;;;;;;;;;;;16.92;59.30;99421.38;2086209;28;19977;-66
2024/01/13 00:49:36;;;;;;;;;;;;;;;16.86;59.34;99414.88;2083325;28;20042;-66
2024/01/13 00:50:38;;;;;;;;;;;;;;;16.83;59.35;99414.38;2085960;28;20429;-66
2024/01/13 00:51:38;;;;;;;;;;;;;;;16.83;59.34;99419.75;2085506;28;19925;-66
2024/01/13 00:52:40;;;;;;;;;;;;;;;16.81;59.42;99411.03;2084686;28;20031;-67
2024/01/13 00:53:40;;;;;;;;;;;;;;;16.82;59.38;99420.72;2086903;28;19933;-66
2024/01/13 00:54:44;;;;;;;;;;;;;;;16.80;59.40;99420.91;2087527;28;19964;-66
2024/01/13 00:55:45;;;;;;;;;;;;;;;16.79;59.43;99407.69;2086011;28;19978;-66
2024/01/13 00:56:46;;;;;;;;;;;;;;;16.78;59.50;99414.06;2086298;28;19974;-66
2024/01/13 00:57:47;;;;;;;;;;;;;;;16.77;59.43;99415.06;2084462;28;19935;-66
2024/01/13 00:58:49;;;;;;;;;;;;;;;16.75;59.58;99413.34;2087147;28;19948;-66
2024/01/13 00:59:49;;;;;;;;;;;;;;;16.74;59.52;99410.84;2084580;28;21113;-66
2024/01/13 01:00:50;;;;;;;;;;;;;;;16.72;59.45;99408.34;2087681;28;20027;-66
2024/01/13 01:01:51;;;;;;;;;;;;;;;16.72;59.62;99402.16;2086903;28;20889;-66
2024/01/13 01:02:52;;;;;;;;;;;;;;;16.70;59.42;99407.69;2088096;28;21803;-66
2024/01/13 01:03:53;;;;;;;;;;;;;;;16.70;59.47;99406.84;2083855;28;19968;-66
2024/01/13 01:04:54;;;;;;;;;;;;;;;16.69;59.35;99407.88;2084812;28;20496;-66
2024/01/13 01:05:55;;;;;;;;;;;;;;;16.69;59.36;99405.19;2086219;28;19932;-66
2024/01/13 01:06:56;;;;;;;;;;;;;;;16.65;59.67;99404.69;2086111;28;20514;-66
2024/01/13 01:07:57;;;;;;;;;;;;;;;16.63;59.68;99403.19;2086558;28;19951;-66
2024/01/13 01:08:59;;;;;;;;;;;;;;;16.61;59.69;99408.72;2088918;28;20433;-66
2024/01/13 01:10:01;;;;;;;;;;;;;;;16.60;59.68;99404.34;2083768;28;19928;-66
2024/01/13 01:11:02;;;;;;;;;;;;;;;16.62;59.66;99409.56;2083962;28;19976;-66
2024/01/13 01:12:03;;;;;;;;;;;;;;;16.58;59.74;99401.03;2088852;28;19963;-66
2024/01/13 01:13:04;;;;;;;;;;;;;;;16.58;59.69;99403.72;2085491;28;20475;-66
2024/01/13 01:14:05;;;;;;;;;;;;;;;16.60;59.59;99403.53;2079169;28;19933;-66
2024/01/13 01:15:06;;;;;;;;;;;;;;;16.59;59.63;99399.19;2083640;28;19932;-66
2024/01/13 01:16:08;;;;;;;;;;;;;;;16.56;59.61;99402.22;2085514;28;20358;-66
2024/01/13 01:17:09;;;;;;;;;;;;;;;16.56;59.67;99400.34;2083552;28;19935;-66
2024/01/13 01:18:10;;;;;;;;;;;;;;;16.57;59.70;99404.69;2087267;28;19968;-66
2024/01/13 01:19:11;;;;;;;;;;;;;;;16.57;59.58;99402.03;2084739;28;19929;-66
2024/01/13 01:20:12;;;;;;;;;;;;;;;16.58;59.59;99406.38;2087074;28;19976;-66
2024/01/13 01:21:14;;;;;;;;;;;;;;;16.60;59.58;99403.53;2083740;28;20296;-66
2024/01/13 01:22:16;;;;;;;;;;;;;;;16.62;59.41;99398.84;2086126;28;20027;-66
2024/01/13 01:23:16;;;;;;;;;;;;;;;16.62;59.34;99402.34;2084749;28;19928;-66
2024/01/13 01:24:18;;;;;;;;;;;;;;;16.64;59.30;99399.50;2085855;28;20233;-66
2024/01/13 01:25:20;;;;;;;;;;;;;;;16.64;59.26;99400.34;2087956;28;19924;-66
2024/01/13 01:26:22;;;;;;;;;;;;;;;16.65;59.17;99398.50;2089107;28;19940;-66
2024/01/13 01:27:23;;;;;;;;;;;;;;;16.64;59.23;99392.31;2084662;28;19928;-66
2024/01/13 01:28:23;;;;;;;;;;;;;;;16.64;59.25;99394.97;2087978;28;20007;-67
2024/01/13 01:29:25;;;;;;;;;;;;;;;16.63;59.20;99398.69;2087594;28;19975;-66
2024/01/13 01:30:25;;;;;;;;;;;;;;;16.62;59.20;99397.00;2087804;28;20509;-66
2024/01/13 01:31:27;;;;;;;;;;;;;;;16.62;59.21;99394.31;2086119;28;19932;-66
2024/01/13 01:32:28;;;;;;;;;;;;;;;16.61;59.23;99391.81;2087632;28;20019;-66
2024/01/13 01:33:29;;;;;;;;;;;;;;;16.62;59.21;99386.28;2086544;28;20478;-66
2024/01/13 01:34:30;;;;;;;;;;;;;;;16.64;59.12;99391.47;2088159;28;19947;-66
2024/01/13 01:35:32;;;;;;;;;;;;;;;16.63;59.23;99387.09;2091575;28;19975;-66
2024/01/13 01:36:32;;;;;;;;;;;;;;;16.61;59.24;99392.66;2089621;28;20407;-66
2024/01/13 01:37:34;;;;;;;;;;;;;;;16.60;59.18;99390.97;2087175;28;19940;-66
2024/01/13 01:38:35;;;;;;;;;;;;;;;16.61;59.24;99389.16;2090783;28;19932;-67
2024/01/13 01:39:37;;;;;;;;;;;;;;;16.59;59.19;99388.47;2089683;28;20018;-66
2024/01/13 01:40:41;;;;;;;;;;;;;;;16.60;59.14;99384.78;2086391;28;19929;-66
2024/01/13 01:41:43;;;;;;;;;;;;;;;16.60;59.16;99388.28;2087030;28;19932;-66
2024/01/13 01:42:43;;;;;;;;;;;;;;;16.59;59.17;99383.94;2086328;28;21288;-66
2024/01/13 01:43:45;;;;;;;;;;;;;;;16.58;59.24;99395.69;2090362;28;19972;-65
2024/01/13 01:44:46;;;;;;;;;;;;;;;16.60;59.07;99392.81;2088937;28;19943;-66
2024/01/13 01:45:48;;;;;;;;;;;;;;;16.56;59.17;99386.97;2087102;28;21335;-66
2024/01/13 01:46:49;;;;;;;;;;;;;;;16.56;59.28;99389.66;2088349;28;19932;-66
2024/01/13 01:47:51;;;;;;;;;;;;;;;16.55;59.25;99390.66;2086686;28;19931;-66
2024/01/13 01:48:56;;;;;;;;;;;;;;;16.50;59.34;99383.13;2088064;28;19957;-66
2024/01/13 01:49:57;;;;;;;;;;;;;;;16.50;59.34;99384.97;2087432;28;19936;-66
2024/01/13 01:50:58;;;;;;;;;;;;;;;16.49;59.32;99381.47;2088979;28;21073;-66
2024/01/13 01:51:59;;;;;;;;;;;;;;;16.49;59.37;99392.19;2088271;28;20705;-66
2024/01/13 01:53:01;;;;;;;;;;;;;;;16.46;59.33;99389.00;2083576;28;21649;-66
2024/01/13 01:54:01;;;;;;;;;;;;;;;16.45;59.36;99384.66;2086785;28;19939;-66
2024/01/13 01:55:04;;;;;;;;;;;;;;;16.43;59.48;99378.63;2090183;28;19968;-66
2024/01/13 01:56:08;;;;;;;;;;;;;;;16.43;59.48;99378.63;2087166;28;19933;-66
2024/01/13 01:57:11;;;;;;;;;;;;;;;16.42;59.43;99379.66;2086345;28;20028;-66
2024/01/13 01:58:13;;;;;;;;;;;;;;;16.40;59.44;99371.78;2089023;28;19928;-66
2024/01/13 01:59:14;;;;;;;;;;;;;;;16.39;59.52;99380.81;2087668;28;19970;-66
2024/01/13 02:00:15;;;;;;;;;;;;;;;16.41;59.52;99375.28;2088003;28;19928;-66
2024/01/13 02:01:16;;;;;;;;;;;;;;;16.36;59.50;99373.13;2089746;28;20538;-66
2024/01/13 02:02:19;;;;;;;;;;;;;;;16.38;59.48;99371.13;2085417;28;19942;-66
2024/01/13 02:03:20;;;;;;;;;;;;;;;16.35;59.54;99375.97;2085993;28;19929;-66
2024/01/13 02:04:22;;;;;;;;;;;;;;;16.34;59.55;99382.34;2088580;28;19932;-66
2024/01/13 02:05:22;;;;;;;;;;;;;;;16.31;59.70;99375.47;2091128;28;20450;-66
2024/01/13 02:06:24;;;;;;;;;;;;;;;16.33;59.56;99376.16;2086157;28;20024;-66
2024/01/13 02:07:25;;;;;;;;;;;;;;;16.30;59.59;99379.19;2087111;28;19932;-66
2024/01/13 02:08:27;;;;;;;;;;;;;;;16.29;59.67;99375.66;2086267;28;20409;-66
2024/01/13 02:09:28;;;;;;;;;;;;;;;16.28;59.68;99379.34;2088566;28;19929;-66
2024/01/13 02:10:30;;;;;;;;;;;;;;;16.26;59.70;99370.63;2088260;28;19924;-66
2024/01/13 02:11:32;;;;;;;;;;;;;;;16.26;59.77;99375.16;2092367;28;19928;-66
2024/01/13 02:12:33;;;;;;;;;;;;;;;16.27;59.77;99376.84;2092674;28;19928;-66
2024/01/13 02:13:34;;;;;;;;;;;;;;;16.26;59.73;99377.84;2088995;28;19928;-66
2024/01/13 02:14:34;;;;;;;;;;;;;;;16.24;59.65;99382.50;2088010;28;19956;-66
2024/01/13 02:15:36;;;;;;;;;;;;;;;16.22;59.75;99380.03;2089690;28;19932;-66
2024/01/13 02:16:37;;;;;;;;;;;;;;;16.24;59.71;99385.19;2086249;28;19932;-66
2024/01/13 02:17:37;;;;;;;;;;;;;;;16.24;59.70;99379.84;2087126;28;20371;-66
2024/01/13 02:18:39;;;;;;;;;;;;;;;16.23;59.66;99379.00;2088093;28;19936;-66
2024/01/13 02:19:40;;;;;;;;;;;;;;;16.19;59.75;99380.38;2090942;28;19951;-66
2024/01/13 02:20:41;;;;;;;;;;;;;;;16.19;59.77;99376.84;2082252;28;20024;-66
2024/01/13 02:21:43;;;;;;;;;;;;;;;16.20;59.74;99378.53;2087876;28;19932;-66
2024/01/13 02:22:45;;;;;;;;;;;;;;;16.19;59.69;99376.84;2090678;28;20089;-66
2024/01/13 02:23:45;;;;;;;;;;;;;;;16.19;59.62;99380.38;2087861;28;19939;-66
2024/01/13 02:24:47;;;;;;;;;;;;;;;16.16;59.84;99379.84;2089699;28;19975;-66
2024/01/13 02:25:48;;;;;;;;;;;;;;;16.14;59.73;99376.53;2089708;28;19935;-66
2024/01/13 02:26:50;;;;;;;;;;;;;;;16.13;59.90;99381.06;2088716;28;20015;-66
2024/01/13 02:27:50;;;;;;;;;;;;;;;16.12;59.86;99384.72;2089086;28;19928;-66
2024/01/13 02:28:52;;;;;;;;;;;;;;;16.11;59.88;99375.03;2083447;28;20039;-66
2024/01/13 02:29:52;;;;;;;;;;;;;;;16.11;59.66;99374.19;2082491;28;19925;-66
2024/01/13 02:30:53;;;;;;;;;;;;;;;16.09;59.87;99375.19;2091621;28;19974;-66
2024/01/13 02:31:54;;;;;;;;;;;;;;;16.13;59.83;99377.50;2088369;28;21203;-66
2024/01/13 02:32:55;;;;;;;;;;;;;;;16.10;59.78;99376.00;2064562;28;19933;-66
2024/01/13 02:33:56;;;;;;;;;;;;;;;16.09;59.82;99374.34;2084494;28;20443;-66
2024/01/13 02:34:57;;;;;;;;;;;;;;;16.09;59.77;99377.84;2089307;28;19932;-66
2024/01/13 02:35:58;;;;;;;;;;;;;;;16.09;59.70;99380.53;2087210;28;19928;-66
2024/01/13 02:37:01;;;;;;;;;;;;;;;16.11;59.76;99383.06;2085639;28;19979;-66
2024/01/13 02:38:02;;;;;;;;;;;;;;;16.09;59.69;99374.34;2088288;28;19936;-66
2024/01/13 02:39:04;;;;;;;;;;;;;;;16.11;59.86;99372.34;2090527;28;20016;-66
2024/01/13 02:40:04;;;;;;;;;;;;;;;16.08;59.68;99370.84;2090991;28;19932;-66
2024/01/13 02:41:06;;;;;;;;;;;;;;;16.09;59.79;99369.81;2088266;28;19933;-66
2024/01/13 02:42:08;;;;;;;;;;;;;;;16.09;59.67;99369.81;2085764;28;19933;-66
2024/01/13 02:43:09;;;;;;;;;;;;;;;16.07;59.77;99361.16;2088517;28;19947;-66
2024/01/13 02:44:10;;;;;;;;;;;;;;;16.07;59.80;99377.22;2087473;28;19929;-66
2024/01/13 02:45:11;;;;;;;;;;;;;;;16.07;59.69;99369.19;2088759;28;20020;-66
2024/01/13 02:46:12;;;;;;;;;;;;;;;16.08;59.77;99361.97;2088833;28;19928;-66
2024/01/13 02:47:14;;;;;;;;;;;;;;;16.06;59.62;99366.66;2088502;28;20470;-66
2024/01/13 02:48:16;;;;;;;;;;;;;;;16.06;59.55;99362.13;2085180;28;19932;-66
2024/01/13 02:49:18;;;;;;;;;;;;;;;16.03;59.85;99353.63;2085036;28;20695;-66
2024/01/13 02:50:19;;;;;;;;;;;;;;;16.05;59.71;99355.13;2087399;28;19933;-66
2024/01/13 02:51:20;;;;;;;;;;;;;;;16.04;59.59;99355.28;2084119;28;20350;-66
2024/01/13 02:52:22;;;;;;;;;;;;;;;16.03;59.72;99353.63;2088064;28;19951;-66
2024/01/13 02:53:24;;;;;;;;;;;;;;;16.00;59.77;99359.31;2089291;28;20015;-66
2024/01/13 02:54:24;;;;;;;;;;;;;;;15.99;59.75;99355.81;2086035;28;19929;-66
2024/01/13 02:55:26;;;;;;;;;;;;;;;15.99;59.78;99357.63;2088314;28;19974;-66
2024/01/13 02:56:27;;;;;;;;;;;;;;;16.02;59.61;99360.81;2089058;28;20580;-66
2024/01/13 02:57:28;;;;;;;;;;;;;;;16.03;59.61;99364.31;2085435;28;19972;-66
2024/01/13 02:58:29;;;;;;;;;;;;;;;16.01;59.69;99366.31;2087191;28;20027;-66
2024/01/13 02:59:31;;;;;;;;;;;;;;;16.01;59.60;99358.31;2087619;28;19929;-66
2024/01/13 03:00:31;;;;;;;;;;;;;;;15.94;59.77;99360.81;2089841;28;19928;-66
2024/01/13 03:01:33;;;;;;;;;;;;;;;15.96;59.77;99363.31;2085891;28;20022;-66
2024/01/13 03:02:34;;;;;;;;;;;;;;;15.93;59.90;99355.63;2086505;28;20419;-66
2024/01/13 03:03:35;;;;;;;;;;;;;;;15.90;59.83;99367.50;2086334;28;20023;-66
2024/01/13 03:04:36;;;;;;;;;;;;;;;15.91;59.87;99361.16;2086984;28;19932;-66
2024/01/13 03:05:38;;;;;;;;;;;;;;;15.92;59.79;99370.03;2088166;28;21680;-66
2024/01/13 03:06:38;;;;;;;;;;;;;;;15.94;59.72;99360.00;2090029;28;22281;-66
2024/01/13 03:07:41;;;;;;;;;;;;;;;15.90;59.76;99364.00;2085663;28;19971;-66
2024/01/13 03:08:43;;;;;;;;;;;;;;;15.88;59.76;99366.00;2090420;28;19939;-66
2024/01/13 03:09:45;;;;;;;;;;;;;;;15.85;59.86;99362.69;2086803;28;19928;-66
2024/01/13 03:10:46;;;;;;;;;;;;;;;15.92;59.66;99362.81;2089763;28;19970;-66
2024/01/13 03:11:48;;;;;;;;;;;;;;;15.93;59.60;99367.16;2088256;28;20422;-66
2024/01/13 03:12:48;;;;;;;;;;;;;;;15.91;59.74;99354.94;2091169;28;19948;-66
2024/01/13 03:13:50;;;;;;;;;;;;;;;15.85;59.77;99367.16;2088896;28;19990;-66
2024/01/13 03:14:50;;;;;;;;;;;;;;;15.81;59.93;99361.31;2089080;28;20571;-66
2024/01/13 03:15:51;;;;;;;;;;;;;;;15.82;59.91;99364.81;2086995;28;20019;-66
2024/01/13 03:16:53;;;;;;;;;;;;;;;15.81;59.94;99363.16;2085292;28;20432;-66
2024/01/13 03:17:53;;;;;;;;;;;;;;;15.84;59.82;99368.19;2088401;28;19939;-66
2024/01/13 03:18:54;;;;;;;;;;;;;;;15.83;59.87;99359.31;2087608;28;20040;-66
2024/01/13 03:19:56;;;;;;;;;;;;;;;15.82;59.82;99364.81;2088610;28;20015;-66
2024/01/13 03:20:57;;;;;;;;;;;;;;;15.81;59.88;99355.97;2089552;28;19928;-66
2024/01/13 03:21:58;;;;;;;;;;;;;;;15.81;59.93;99355.16;2089036;28;19939;-67
2024/01/13 03:23:00;;;;;;;;;;;;;;;15.79;59.74;99347.28;2091189;28;19940;-66
2024/01/13 03:24:01;;;;;;;;;;;;;;;15.79;59.75;99347.28;2087679;28;20031;-66
2024/01/13 03:25:03;;;;;;;;;;;;;;;15.79;59.77;99349.94;2087749;28;19931;-66
2024/01/13 03:26:03;;;;;;;;;;;;;;;15.76;59.87;99355.63;2087794;28;20020;-66
2024/01/13 03:27:05;;;;;;;;;;;;;;;15.79;59.87;99357.97;2085905;28;19932;-66
2024/01/13 03:28:06;;;;;;;;;;;;;;;15.79;59.74;99357.97;2087473;28;19925;-66
2024/01/13 03:29:07;;;;;;;;;;;;;;;15.79;59.91;99357.97;2087392;28;20011;-66
2024/01/13 03:30:08;;;;;;;;;;;;;;;15.80;59.68;99359.66;2089164;28;20327;-66
2024/01/13 03:31:10;;;;;;;;;;;;;;;15.85;59.57;99356.47;2090692;28;19979;-66
2024/01/13 03:32:10;;;;;;;;;;;;;;;15.92;59.32;99352.13;2088203;28;19928;-66
2024/01/13 03:33:13;;;;;;;;;;;;;;;15.97;59.26;99355.13;2081106;28;19932;-66
2024/01/13 03:34:13;;;;;;;;;;;;;;;16.05;59.09;99355.13;2088735;28;20565;-66
2024/01/13 03:35:15;;;;;;;;;;;;;;;16.10;59.12;99349.25;2083526;28;20012;-66
2024/01/13 03:36:16;;;;;;;;;;;;;;;16.15;58.91;99354.94;2087010;28;19931;-66
2024/01/13 03:37:17;;;;;;;;;;;;;;;16.21;58.67;99351.56;2084738;28;20359;-66
2024/01/13 03:38:19;;;;;;;;;;;;;;;16.26;58.56;99349.22;2084560;28;19929;-65
2024/01/13 03:39:20;;;;;;;;;;;;;;;16.28;58.67;99347.22;2083826;28;20043;-66
2024/01/13 03:40:21;;;;;;;;;;;;;;;16.31;58.58;99344.19;2084179;28;19975;-66
2024/01/13 03:41:22;;;;;;;;;;;;;;;16.35;58.56;99346.53;2083849;28;20455;-66
2024/01/13 03:42:24;;;;;;;;;;;;;;;16.37;58.59;99344.53;2084718;28;20003;-66
2024/01/13 03:43:24;;;;;;;;;;;;;;;16.39;58.54;99347.88;2083467;28;19928;-66
2024/01/13 03:44:26;;;;;;;;;;;;;;;16.41;58.56;99345.81;2083817;28;20061;-66
2024/01/13 03:45:27;;;;;;;;;;;;;;;16.43;58.45;99344.66;2084517;28;19978;-66
2024/01/13 03:46:28;;;;;;;;;;;;;;;16.44;58.58;99343.66;2083889;28;19989;-66
2024/01/13 03:47:29;;;;;;;;;;;;;;;16.43;58.61;99343.81;2082168;28;19933;-66
2024/01/13 03:48:31;;;;;;;;;;;;;;;16.45;58.58;99344.50;2083015;28;20380;-66
2024/01/13 03:49:31;;;;;;;;;;;;;;;16.46;58.60;99346.97;2082845;28;19933;-67
2024/01/13 03:50:32;;;;;;;;;;;;;;;16.48;58.43;99349.50;2083462;28;19933;-66
2024/01/13 03:51:34;;;;;;;;;;;;;;;16.49;58.48;99348.47;2085913;28;19954;-67
2024/01/13 03:52:35;;;;;;;;;;;;;;;16.48;58.47;99341.47;2084521;28;20359;-66
2024/01/13 03:53:37;;;;;;;;;;;;;;;16.51;58.61;99346.47;2082676;28;19941;-66
2024/01/13 03:54:38;;;;;;;;;;;;;;;16.51;58.49;99349.97;2083894;28;19932;-66
2024/01/13 03:55:39;;;;;;;;;;;;;;;16.52;58.52;99349.00;2084682;28;19932;-67
2024/01/13 03:56:40;;;;;;;;;;;;;;;16.54;58.51;99348.81;2086092;28;19967;-67
2024/01/13 03:57:41;;;;;;;;;;;;;;;16.54;58.51;99354.16;2082844;28;19932;-66
2024/01/13 03:58:43;;;;;;;;;;;;;;;16.56;58.49;99354.00;2082232;28;20015;-66
2024/01/13 03:59:45;;;;;;;;;;;;;;;16.53;58.57;99352.50;2084689;28;19925;-66
2024/01/13 04:00:47;;;;;;;;;;;;;;;16.56;58.50;99351.31;2082858;28;19939;-66
2024/01/13 04:01:47;;;;;;;;;;;;;;;16.56;58.50;99349.47;2083998;28;19947;-66
2024/01/13 04:02:49;;;;;;;;;;;;;;;16.57;58.58;99347.63;2080786;28;20332;-66
2024/01/13 04:03:50;;;;;;;;;;;;;;;16.56;58.46;99335.25;2080590;28;20804;-67
2024/01/13 04:04:51;;;;;;;;;;;;;;;16.56;58.57;99351.31;2083632;28;20027;-66
2024/01/13 04:05:52;;;;;;;;;;;;;;;16.56;58.51;99344.13;2084041;28;19928;-66
2024/01/13 04:06:53;;;;;;;;;;;;;;;16.53;58.61;99349.81;2086910;28;20501;-66
2024/01/13 04:07:54;;;;;;;;;;;;;;;16.54;58.62;99346.13;2080994;28;19936;-66
2024/01/13 04:08:56;;;;;;;;;;;;;;;16.57;58.62;99351.13;2082683;28;20478;-66
2024/01/13 04:09:58;;;;;;;;;;;;;;;16.59;58.48;99350.97;2086325;28;19951;-66
2024/01/13 04:10:58;;;;;;;;;;;;;;;16.57;58.52;99356.50;2080929;28;19928;-66
2024/01/13 04:12:00;;;;;;;;;;;;;;;16.57;58.53;99355.66;2082926;28;19929;-66
2024/01/13 04:13:01;;;;;;;;;;;;;;;16.59;58.61;99356.34;2087202;28;19935;-66
2024/01/13 04:14:02;;;;;;;;;;;;;;;16.59;58.46;99349.13;2082028;28;20009;-66
2024/01/13 04:15:03;;;;;;;;;;;;;;;16.59;58.53;99356.34;2083000;28;19936;-66
2024/01/13 04:16:05;;;;;;;;;;;;;;;16.59;58.53;99348.31;2087491;28;19924;-66
2024/01/13 04:17:06;;;;;;;;;;;;;;;16.58;58.37;99354.69;2086106;28;19931;-67
2024/01/13 04:18:08;;;;;;;;;;;;;;;16.57;58.56;99355.66;2085410;28;20395;-66
2024/01/13 04:19:08;;;;;;;;;;;;;;;16.57;58.50;99356.50;2081817;28;19936;-66
2024/01/13 04:20:10;;;;;;;;;;;;;;;16.57;58.47;99355.66;2080590;28;20016;-67
2024/01/13 04:21:11;;;;;;;;;;;;;;;16.59;58.51;99357.16;2083244;28;19924;-66
2024/01/13 04:22:12;;;;;;;;;;;;;;;16.60;58.50;99350.78;2079917;28;20040;-66
2024/01/13 04:23:13;;;;;;;;;;;;;;;16.56;58.54;99357.50;2082503;28;19929;-66
2024/01/13 04:24:16;;;;;;;;;;;;;;;16.57;58.48;99356.50;2083306;28;20530;-66
2024/01/13 04:25:16;;;;;;;;;;;;;;;16.60;58.44;99352.63;2084415;28;19929;-67
2024/01/13 04:26:17;;;;;;;;;;;;;;;16.59;58.45;99359.00;2083307;28;19956;-67
2024/01/13 04:27:19;;;;;;;;;;;;;;;16.59;58.51;99357.16;2080942;28;20715;-67
2024/01/13 04:28:19;;;;;;;;;;;;;;;16.59;58.48;99359.00;2083367;28;19977;-66
2024/01/13 04:29:20;;;;;;;;;;;;;;;16.58;58.48;99360.84;2083750;28;19929;-66
2024/01/13 04:30:22;;;;;;;;;;;;;;;16.58;58.52;99360.84;2085213;28;19932;-67
2024/01/13 04:31:22;;;;;;;;;;;;;;;16.58;58.46;99346.63;2084923;28;20292;-66
2024/01/13 04:32:24;;;;;;;;;;;;;;;16.58;58.53;99360.03;2086487;28;20027;-66
2024/01/13 04:33:24;;;;;;;;;;;;;;;16.56;58.47;99346.81;2082635;28;19931;-66
2024/01/13 04:34:26;;;;;;;;;;;;;;;16.54;58.60;99354.16;2081332;28;20036;-67
2024/01/13 04:35:27;;;;;;;;;;;;;;;16.55;58.49;99358.53;2082838;28;19932;-67
2024/01/13 04:36:29;;;;;;;;;;;;;;;16.56;58.54;99356.69;2083726;28;19983;-66
2024/01/13 04:37:29;;;;;;;;;;;;;;;16.53;58.59;99355.19;2080827;28;19932;-66
2024/01/13 04:38:30;;;;;;;;;;;;;;;16.53;58.59;99357.84;2084032;28;19925;-66
2024/01/13 04:39:33;;;;;;;;;;;;;;;16.53;58.58;99355.19;2084459;28;20296;-66
2024/01/13 04:40:36;;;;;;;;;;;;;;;16.51;58.59;99358.00;2083584;28;19925;-66
2024/01/13 04:41:41;;;;;;;;;;;;;;;16.49;58.64;99352.03;2083338;28;19975;-65
2024/01/13 04:42:41;;;;;;;;;;;;;;;16.50;58.60;99356.34;2084267;28;19924;-66
2024/01/13 04:43:43;;;;;;;;;;;;;;;16.50;58.61;99348.31;2081918;28;19935;-66
2024/01/13 04:44:43;;;;;;;;;;;;;;;16.50;58.56;99351.00;2082815;28;19924;-67
2024/01/13 04:45:44;;;;;;;;;;;;;;;16.48;58.65;99352.19;2083881;28;20019;-67
2024/01/13 04:46:46;;;;;;;;;;;;;;;16.47;58.74;99351.34;2083758;28;19932;-66
2024/01/13 04:47:46;;;;;;;;;;;;;;;16.45;58.66;99355.22;2084777;28;20473;-66
2024/01/13 04:48:47;;;;;;;;;;;;;;;16.45;58.72;99360.56;2081439;28;19959;-65
2024/01/13 04:49:49;;;;;;;;;;;;;;;16.43;58.72;99354.53;2080765;28;19929;-66
2024/01/13 04:50:50;;;;;;;;;;;;;;;16.45;58.60;99360.56;2082687;28;19940;-66
2024/01/13 04:51:52;;;;;;;;;;;;;;;16.45;58.58;99356.03;2084322;28;19932;-66
2024/01/13 04:52:53;;;;;;;;;;;;;;;16.45;58.77;99363.25;2084150;28;19932;-66
2024/01/13 04:53:55;;;;;;;;;;;;;;;16.43;58.77;99359.88;2083209;28;20723;-66
2024/01/13 04:54:57;;;;;;;;;;;;;;;16.42;58.61;99367.09;2084265;28;20299;-67
2024/01/13 04:55:59;;;;;;;;;;;;;;;16.40;58.68;99368.25;2081219;28;19941;-66
2024/01/13 04:57:00;;;;;;;;;;;;;;;16.41;58.75;99367.25;2082354;28;19974;-66
2024/01/13 04:58:01;;;;;;;;;;;;;;;16.39;58.77;99361.25;2083566;28;20659;-66
2024/01/13 04:59:02;;;;;;;;;;;;;;;16.38;58.65;99364.91;2079726;28;20073;-66
2024/01/13 05:00:04;;;;;;;;;;;;;;;16.38;58.87;99356.88;2082940;28;20407;-66
2024/01/13 05:01:06;;;;;;;;;;;;;;;16.39;58.55;99355.91;2083133;28;22483;-66
2024/01/13 05:02:07;;;;;;;;;;;;;;;16.38;58.67;99363.09;2084566;28;19932;-66
2024/01/13 05:03:08;;;;;;;;;;;;;;;16.38;58.71;99354.22;2084055;28;19968;-66
2024/01/13 05:04:09;;;;;;;;;;;;;;;16.35;58.75;99368.78;2080540;28;19979;-66
2024/01/13 05:05:11;;;;;;;;;;;;;;;16.33;58.73;99367.28;2084215;28;20011;-66
2024/01/13 05:06:12;;;;;;;;;;;;;;;16.33;58.75;99370.81;2085768;28;19990;-67
2024/01/13 05:07:14;;;;;;;;;;;;;;;16.33;58.73;99362.78;2083551;28;21061;-66
2024/01/13 05:08:15;;;;;;;;;;;;;;;16.35;58.76;99368.78;2085940;28;19965;-66
2024/01/13 05:09:16;;;;;;;;;;;;;;;16.32;58.76;99369.13;2081661;28;19924;-67
2024/01/13 05:10:18;;;;;;;;;;;;;;;16.30;58.81;99371.97;2084344;28;20461;-67
2024/01/13 05:11:20;;;;;;;;;;;;;;;16.28;58.78;99371.31;2086132;28;20015;-66
2024/01/13 05:12:20;;;;;;;;;;;;;;;16.27;58.87;99372.31;2082154;28;19948;-66
2024/01/13 05:13:21;;;;;;;;;;;;;;;16.25;58.80;99377.00;2085612;28;20058;-67
2024/01/13 05:14:22;;;;;;;;;;;;;;;16.25;58.90;99374.31;2081873;28;20030;-66
2024/01/13 05:15:23;;;;;;;;;;;;;;;16.26;58.96;99372.47;2084733;28;19928;-66
2024/01/13 05:16:25;;;;;;;;;;;;;;;16.24;58.74;99372.66;2083556;28;20015;-66
2024/01/13 05:17:25;;;;;;;;;;;;;;;16.22;58.82;99372.00;2082582;28;20505;-66
2024/01/13 05:18:26;;;;;;;;;;;;;;;16.22;58.93;99368.50;2083939;28;19928;-66
2024/01/13 05:19:28;;;;;;;;;;;;;;;16.18;59.05;99364.47;2083049;28;19978;-66